sensor_id;sensor_type;location;lat;lon;timestamp;P1;durP1;ratioP1;P2;durP2;ratioP2
15398;SDS011;7797;51.428;6.756;2022-07-31T00:01:26;2.90;;;2.70;;
15398;SDS011;7797;51.428;6.756;2022-07-31T00:03:52;3.88;;;2.58;;
15398;SDS011;7797;51.428;6.756;2022-07-31T00:06:19;2.40;;;2.30;;
15398;SDS011;7797;51.428;6.756;2022-07-31T00:08:48;3.15;;;2.63;;
15398;SDS011;7797;51.428;6.756;2022-07-31T00:11:15;2.85;;;2.65;;
15398;SDS011;7797;51.428;6.756;2022-07-31T00:13:42;4.30;;;2.40;;
15398;SDS011;7797;51.428;6.756;2022-07-31T00:16:23;2.40;;;2.30;;
15398;SDS011;7797;51.428;6.756;2022-07-31T00:18:50;2.50;;;2.30;;
15398;SDS011;7797;51.428;6.756;2022-07-31T00:21:16;3.13;;;2.60;;
15398;SDS011;7797;51.428;6.756;2022-07-31T00:23:44;2.90;;;2.60;;
15398;SDS011;7797;51.428;6.756;2022-07-31T00:26:10;4.95;;;2.92;;
15398;SDS011;7797;51.428;6.756;2022-07-31T00:28:37;2.70;;;2.50;;
15398;SDS011;7797;51.428;6.756;2022-07-31T00:31:04;2.78;;;2.58;;
15398;SDS011;7797;51.428;6.756;2022-07-31T00:33:31;4.10;;;2.60;;
15398;SDS011;7797;51.428;6.756;2022-07-31T00:35:58;3.42;;;2.83;;
15398;SDS011;7797;51.428;6.756;2022-07-31T00:38:25;3.67;;;3.38;;
15398;SDS011;7797;51.428;6.756;2022-07-31T00:40:53;4.13;;;3.00;;
15398;SDS011;7797;51.428;6.756;2022-07-31T00:43:19;2.97;;;2.78;;
15398;SDS011;7797;51.428;6.756;2022-07-31T00:45:46;2.65;;;2.45;;
15398;SDS011;7797;51.428;6.756;2022-07-31T00:48:23;2.88;;;2.67;;
15398;SDS011;7797;51.428;6.756;2022-07-31T00:50:50;4.10;;;2.60;;
15398;SDS011;7797;51.428;6.756;2022-07-31T00:53:17;3.08;;;2.50;;
15398;SDS011;7797;51.428;6.756;2022-07-31T00:55:44;2.70;;;2.50;;
15398;SDS011;7797;51.428;6.756;2022-07-31T00:58:17;4.70;;;2.58;;
15398;SDS011;7797;51.428;6.756;2022-07-31T01:00:45;4.72;;;2.70;;
15398;SDS011;7797;51.428;6.756;2022-07-31T01:03:12;2.80;;;2.60;;
15398;SDS011;7797;51.428;6.756;2022-07-31T01:05:39;3.13;;;2.80;;
15398;SDS011;7797;51.428;6.756;2022-07-31T01:08:07;2.75;;;2.55;;
15398;SDS011;7797;51.428;6.756;2022-07-31T01:10:42;2.80;;;2.55;;
15398;SDS011;7797;51.428;6.756;2022-07-31T01:13:12;3.22;;;2.70;;
15398;SDS011;7797;51.428;6.756;2022-07-31T01:15:43;2.97;;;2.78;;
15398;SDS011;7797;51.428;6.756;2022-07-31T01:18:10;5.97;;;2.90;;
15398;SDS011;7797;51.428;6.756;2022-07-31T01:20:40;3.13;;;2.53;;
15398;SDS011;7797;51.428;6.756;2022-07-31T01:23:17;2.90;;;2.70;;
15398;SDS011;7797;51.428;6.756;2022-07-31T01:26:10;4.40;;;2.63;;
15398;SDS011;7797;51.428;6.756;2022-07-31T01:30:00;3.03;;;2.67;;
15398;SDS011;7797;51.428;6.756;2022-07-31T01:32:09;2.97;;;2.75;;
15398;SDS011;7797;51.428;6.756;2022-07-31T01:35:10;4.47;;;2.92;;
15398;SDS011;7797;51.428;6.756;2022-07-31T01:37:46;2.90;;;2.70;;
15398;SDS011;7797;51.428;6.756;2022-07-31T01:40:53;3.20;;;2.90;;
15398;SDS011;7797;51.428;6.756;2022-07-31T01:43:16;4.75;;;3.10;;
15398;SDS011;7797;51.428;6.756;2022-07-31T01:45:48;3.10;;;2.80;;
15398;SDS011;7797;51.428;6.756;2022-07-31T01:48:17;4.05;;;2.95;;
15398;SDS011;7797;51.428;6.756;2022-07-31T01:50:45;5.22;;;2.78;;
15398;SDS011;7797;51.428;6.756;2022-07-31T01:53:14;3.47;;;2.88;;
15398;SDS011;7797;51.428;6.756;2022-07-31T01:55:44;3.20;;;2.90;;
15398;SDS011;7797;51.428;6.756;2022-07-31T01:58:31;3.20;;;2.97;;
15398;SDS011;7797;51.428;6.756;2022-07-31T02:00:59;3.70;;;3.00;;
15398;SDS011;7797;51.428;6.756;2022-07-31T02:03:29;3.23;;;2.90;;
15398;SDS011;7797;51.428;6.756;2022-07-31T02:06:10;3.57;;;3.20;;
15398;SDS011;7797;51.428;6.756;2022-07-31T02:08:38;3.53;;;3.23;;
15398;SDS011;7797;51.428;6.756;2022-07-31T02:11:05;3.53;;;3.13;;
15398;SDS011;7797;51.428;6.756;2022-07-31T02:13:33;5.55;;;3.50;;
15398;SDS011;7797;51.428;6.756;2022-07-31T02:16:01;4.40;;;3.07;;
15398;SDS011;7797;51.428;6.756;2022-07-31T02:18:30;3.90;;;3.23;;
15398;SDS011;7797;51.428;6.756;2022-07-31T02:20:58;6.87;;;3.47;;
15398;SDS011;7797;51.428;6.756;2022-07-31T02:23:24;5.40;;;3.20;;
15398;SDS011;7797;51.428;6.756;2022-07-31T02:25:51;3.50;;;3.20;;
15398;SDS011;7797;51.428;6.756;2022-07-31T02:28:18;3.60;;;3.33;;
15398;SDS011;7797;51.428;6.756;2022-07-31T02:30:46;3.50;;;3.20;;
15398;SDS011;7797;51.428;6.756;2022-07-31T02:33:18;3.37;;;3.10;;
15398;SDS011;7797;51.428;6.756;2022-07-31T02:35:49;3.53;;;3.23;;
15398;SDS011;7797;51.428;6.756;2022-07-31T02:38:18;3.53;;;3.23;;
15398;SDS011;7797;51.428;6.756;2022-07-31T02:41:07;3.30;;;3.10;;
15398;SDS011;7797;51.428;6.756;2022-07-31T02:43:36;3.97;;;3.20;;
15398;SDS011;7797;51.428;6.756;2022-07-31T02:46:04;3.77;;;3.40;;
15398;SDS011;7797;51.428;6.756;2022-07-31T02:48:31;3.67;;;3.37;;
15398;SDS011;7797;51.428;6.756;2022-07-31T02:50:58;3.33;;;3.10;;
15398;SDS011;7797;51.428;6.756;2022-07-31T02:53:25;4.10;;;3.20;;
15398;SDS011;7797;51.428;6.756;2022-07-31T02:55:52;4.30;;;3.07;;
15398;SDS011;7797;51.428;6.756;2022-07-31T02:58:19;3.23;;;2.83;;
15398;SDS011;7797;51.428;6.756;2022-07-31T03:00:46;3.93;;;3.20;;
15398;SDS011;7797;51.428;6.756;2022-07-31T03:03:12;3.73;;;3.13;;
15398;SDS011;7797;51.428;6.756;2022-07-31T03:05:39;3.13;;;2.87;;
15398;SDS011;7797;51.428;6.756;2022-07-31T03:08:06;3.57;;;3.07;;
15398;SDS011;7797;51.428;6.756;2022-07-31T03:10:33;3.50;;;3.20;;
15398;SDS011;7797;51.428;6.756;2022-07-31T03:12:59;3.17;;;2.97;;
15398;SDS011;7797;51.428;6.756;2022-07-31T03:15:27;3.00;;;2.80;;
15398;SDS011;7797;51.428;6.756;2022-07-31T03:17:54;3.97;;;2.80;;
15398;SDS011;7797;51.428;6.756;2022-07-31T03:20:21;4.97;;;3.50;;
15398;SDS011;7797;51.428;6.756;2022-07-31T03:22:48;6.30;;;3.17;;
15398;SDS011;7797;51.428;6.756;2022-07-31T03:25:17;4.47;;;3.37;;
15398;SDS011;7797;51.428;6.756;2022-07-31T03:27:47;6.10;;;3.57;;
15398;SDS011;7797;51.428;6.756;2022-07-31T03:30:21;4.83;;;3.60;;
15398;SDS011;7797;51.428;6.756;2022-07-31T03:32:52;4.20;;;3.47;;
15398;SDS011;7797;51.428;6.756;2022-07-31T03:35:19;4.50;;;3.43;;
15398;SDS011;7797;51.428;6.756;2022-07-31T03:37:46;3.60;;;3.30;;
15398;SDS011;7797;51.428;6.756;2022-07-31T03:40:13;5.87;;;3.73;;
15398;SDS011;7797;51.428;6.756;2022-07-31T03:42:40;4.97;;;3.50;;
15398;SDS011;7797;51.428;6.756;2022-07-31T03:45:07;4.73;;;3.27;;
15398;SDS011;7797;51.428;6.756;2022-07-31T03:47:35;4.50;;;3.20;;
15398;SDS011;7797;51.428;6.756;2022-07-31T03:50:02;4.87;;;3.30;;
15398;SDS011;7797;51.428;6.756;2022-07-31T03:52:29;4.93;;;3.07;;
15398;SDS011;7797;51.428;6.756;2022-07-31T03:54:56;3.27;;;2.97;;
15398;SDS011;7797;51.428;6.756;2022-07-31T03:57:23;3.40;;;3.20;;
15398;SDS011;7797;51.428;6.756;2022-07-31T03:59:55;3.43;;;3.13;;
15398;SDS011;7797;51.428;6.756;2022-07-31T04:02:28;3.97;;;3.20;;
15398;SDS011;7797;51.428;6.756;2022-07-31T04:04:54;3.70;;;3.40;;
15398;SDS011;7797;51.428;6.756;2022-07-31T04:07:22;5.47;;;3.30;;
15398;SDS011;7797;51.428;6.756;2022-07-31T04:09:49;3.53;;;3.23;;
15398;SDS011;7797;51.428;6.756;2022-07-31T04:12:16;3.73;;;3.37;;
15398;SDS011;7797;51.428;6.756;2022-07-31T04:14:43;5.23;;;3.70;;
15398;SDS011;7797;51.428;6.756;2022-07-31T04:17:10;4.83;;;3.50;;
15398;SDS011;7797;51.428;6.756;2022-07-31T04:19:36;6.17;;;3.63;;
15398;SDS011;7797;51.428;6.756;2022-07-31T04:22:04;4.47;;;3.73;;
15398;SDS011;7797;51.428;6.756;2022-07-31T04:24:32;4.83;;;3.50;;
15398;SDS011;7797;51.428;6.756;2022-07-31T04:26:59;5.57;;;3.50;;
15398;SDS011;7797;51.428;6.756;2022-07-31T04:29:25;5.83;;;3.47;;
15398;SDS011;7797;51.428;6.756;2022-07-31T04:31:55;3.83;;;3.47;;
15398;SDS011;7797;51.428;6.756;2022-07-31T04:34:22;4.40;;;3.50;;
15398;SDS011;7797;51.428;6.756;2022-07-31T04:36:49;4.50;;;4.03;;
15398;SDS011;7797;51.428;6.756;2022-07-31T04:39:15;4.90;;;3.67;;
15398;SDS011;7797;51.428;6.756;2022-07-31T04:41:42;6.57;;;3.33;;
15398;SDS011;7797;51.428;6.756;2022-07-31T04:44:09;4.57;;;3.43;;
15398;SDS011;7797;51.428;6.756;2022-07-31T04:46:36;6.37;;;3.40;;
15398;SDS011;7797;51.428;6.756;2022-07-31T04:49:03;5.70;;;3.67;;
15398;SDS011;7797;51.428;6.756;2022-07-31T04:51:30;3.77;;;3.47;;
15398;SDS011;7797;51.428;6.756;2022-07-31T04:53:57;7.63;;;3.80;;
15398;SDS011;7797;51.428;6.756;2022-07-31T04:56:23;6.10;;;3.90;;
15398;SDS011;7797;51.428;6.756;2022-07-31T04:59:00;4.63;;;3.67;;
15398;SDS011;7797;51.428;6.756;2022-07-31T05:01:28;3.97;;;3.57;;
15398;SDS011;7797;51.428;6.756;2022-07-31T05:03:55;3.83;;;3.40;;
15398;SDS011;7797;51.428;6.756;2022-07-31T05:06:21;5.47;;;4.10;;
15398;SDS011;7797;51.428;6.756;2022-07-31T05:08:48;5.97;;;3.60;;
15398;SDS011;7797;51.428;6.756;2022-07-31T05:11:15;5.47;;;4.27;;
15398;SDS011;7797;51.428;6.756;2022-07-31T05:13:48;4.40;;;4.00;;
15398;SDS011;7797;51.428;6.756;2022-07-31T05:16:16;6.37;;;4.40;;
15398;SDS011;7797;51.428;6.756;2022-07-31T05:18:44;4.63;;;4.17;;
15398;SDS011;7797;51.428;6.756;2022-07-31T05:21:11;5.30;;;4.80;;
15398;SDS011;7797;51.428;6.756;2022-07-31T05:23:39;5.40;;;4.90;;
15398;SDS011;7797;51.428;6.756;2022-07-31T05:26:08;5.20;;;4.70;;
15398;SDS011;7797;51.428;6.756;2022-07-31T05:28:35;7.57;;;4.83;;
15398;SDS011;7797;51.428;6.756;2022-07-31T05:31:03;5.87;;;5.20;;
15398;SDS011;7797;51.428;6.756;2022-07-31T05:33:30;7.57;;;5.23;;
15398;SDS011;7797;51.428;6.756;2022-07-31T05:35:58;6.97;;;5.30;;
15398;SDS011;7797;51.428;6.756;2022-07-31T05:38:26;8.57;;;5.60;;
15398;SDS011;7797;51.428;6.756;2022-07-31T05:40:53;7.13;;;5.00;;
15398;SDS011;7797;51.428;6.756;2022-07-31T05:43:19;9.23;;;5.70;;
15398;SDS011;7797;51.428;6.756;2022-07-31T05:45:46;6.37;;;5.70;;
15398;SDS011;7797;51.428;6.756;2022-07-31T05:48:13;5.60;;;5.10;;
15398;SDS011;7797;51.428;6.756;2022-07-31T05:50:41;5.77;;;5.27;;
15398;SDS011;7797;51.428;6.756;2022-07-31T05:53:09;5.90;;;5.10;;
15398;SDS011;7797;51.428;6.756;2022-07-31T05:55:40;6.10;;;5.20;;
15398;SDS011;7797;51.428;6.756;2022-07-31T05:58:08;6.57;;;5.13;;
15398;SDS011;7797;51.428;6.756;2022-07-31T06:00:42;7.23;;;5.30;;
15398;SDS011;7797;51.428;6.756;2022-07-31T06:03:10;7.73;;;5.70;;
15398;SDS011;7797;51.428;6.756;2022-07-31T06:05:39;7.63;;;5.00;;
15398;SDS011;7797;51.428;6.756;2022-07-31T06:08:06;7.27;;;5.63;;
15398;SDS011;7797;51.428;6.756;2022-07-31T06:10:35;7.93;;;5.30;;
15398;SDS011;7797;51.428;6.756;2022-07-31T06:13:05;5.60;;;5.10;;
15398;SDS011;7797;51.428;6.756;2022-07-31T06:15:31;5.47;;;4.93;;
15398;SDS011;7797;51.428;6.756;2022-07-31T06:18:02;7.90;;;5.00;;
15398;SDS011;7797;51.428;6.756;2022-07-31T06:20:29;10.20;;;5.40;;
15398;SDS011;7797;51.428;6.756;2022-07-31T06:22:56;6.20;;;5.07;;
15398;SDS011;7797;51.428;6.756;2022-07-31T06:25:23;8.23;;;4.77;;
15398;SDS011;7797;51.428;6.756;2022-07-31T06:28:01;6.43;;;4.40;;
15398;SDS011;7797;51.428;6.756;2022-07-31T06:30:35;5.00;;;4.53;;
15398;SDS011;7797;51.428;6.756;2022-07-31T06:33:02;4.53;;;4.10;;
15398;SDS011;7797;51.428;6.756;2022-07-31T06:35:33;4.60;;;4.20;;
15398;SDS011;7797;51.428;6.756;2022-07-31T06:38:00;8.07;;;4.00;;
15398;SDS011;7797;51.428;6.756;2022-07-31T06:40:27;5.33;;;4.10;;
15398;SDS011;7797;51.428;6.756;2022-07-31T06:42:54;4.93;;;3.70;;
15398;SDS011;7797;51.428;6.756;2022-07-31T06:45:20;4.17;;;3.67;;
15398;SDS011;7797;51.428;6.756;2022-07-31T06:48:11;5.23;;;3.50;;
15398;SDS011;7797;51.428;6.756;2022-07-31T06:50:38;3.97;;;3.50;;
15398;SDS011;7797;51.428;6.756;2022-07-31T06:53:05;4.00;;;3.10;;
15398;SDS011;7797;51.428;6.756;2022-07-31T06:55:31;3.77;;;3.40;;
15398;SDS011;7797;51.428;6.756;2022-07-31T06:57:58;6.27;;;3.23;;
15398;SDS011;7797;51.428;6.756;2022-07-31T07:00:25;3.80;;;3.03;;
15398;SDS011;7797;51.428;6.756;2022-07-31T07:02:52;3.37;;;3.07;;
15398;SDS011;7797;51.428;6.756;2022-07-31T07:05:18;4.93;;;3.20;;
15398;SDS011;7797;51.428;6.756;2022-07-31T07:07:46;3.13;;;2.80;;
15398;SDS011;7797;51.428;6.756;2022-07-31T07:10:13;4.83;;;3.03;;
15398;SDS011;7797;51.428;6.756;2022-07-31T07:12:40;3.50;;;3.20;;
15398;SDS011;7797;51.428;6.756;2022-07-31T07:15:08;3.63;;;3.10;;
15398;SDS011;7797;51.428;6.756;2022-07-31T07:17:35;3.00;;;2.80;;
15398;SDS011;7797;51.428;6.756;2022-07-31T07:20:02;3.47;;;2.77;;
15398;SDS011;7797;51.428;6.756;2022-07-31T07:22:29;3.70;;;3.17;;
15398;SDS011;7797;51.428;6.756;2022-07-31T07:24:58;4.53;;;3.20;;
15398;SDS011;7797;51.428;6.756;2022-07-31T07:27:26;3.00;;;2.80;;
15398;SDS011;7797;51.428;6.756;2022-07-31T07:29:53;3.87;;;3.00;;
15398;SDS011;7797;51.428;6.756;2022-07-31T07:32:19;3.00;;;2.60;;
15398;SDS011;7797;51.428;6.756;2022-07-31T07:34:46;4.27;;;3.10;;
15398;SDS011;7797;51.428;6.756;2022-07-31T07:37:24;3.20;;;2.90;;
15398;SDS011;7797;51.428;6.756;2022-07-31T07:39:51;3.10;;;2.80;;
15398;SDS011;7797;51.428;6.756;2022-07-31T07:42:18;3.27;;;2.87;;
15398;SDS011;7797;51.428;6.756;2022-07-31T07:44:45;3.80;;;3.50;;
15398;SDS011;7797;51.428;6.756;2022-07-31T07:47:12;3.30;;;3.00;;
15398;SDS011;7797;51.428;6.756;2022-07-31T07:49:38;3.13;;;2.83;;
15398;SDS011;7797;51.428;6.756;2022-07-31T07:52:05;3.23;;;2.93;;
15398;SDS011;7797;51.428;6.756;2022-07-31T07:54:32;3.00;;;2.80;;
15398;SDS011;7797;51.428;6.756;2022-07-31T07:56:58;6.30;;;2.87;;
15398;SDS011;7797;51.428;6.756;2022-07-31T07:59:25;3.33;;;2.90;;
15398;SDS011;7797;51.428;6.756;2022-07-31T08:01:52;3.20;;;2.87;;
15398;SDS011;7797;51.428;6.756;2022-07-31T08:04:18;3.30;;;3.00;;
15398;SDS011;7797;51.428;6.756;2022-07-31T08:06:45;3.23;;;2.90;;
15398;SDS011;7797;51.428;6.756;2022-07-31T08:09:12;3.53;;;3.23;;
15398;SDS011;7797;51.428;6.756;2022-07-31T08:11:39;3.37;;;3.07;;
15398;SDS011;7797;51.428;6.756;2022-07-31T08:14:06;3.33;;;3.03;;
15398;SDS011;7797;51.428;6.756;2022-07-31T08:16:32;4.93;;;3.30;;
15398;SDS011;7797;51.428;6.756;2022-07-31T08:18:59;3.67;;;2.87;;
15398;SDS011;7797;51.428;6.756;2022-07-31T08:21:26;3.97;;;3.20;;
15398;SDS011;7797;51.428;6.756;2022-07-31T08:23:52;3.90;;;3.50;;
15398;SDS011;7797;51.428;6.756;2022-07-31T08:26:19;3.43;;;3.13;;
15398;SDS011;7797;51.428;6.756;2022-07-31T08:28:47;4.57;;;3.60;;
15398;SDS011;7797;51.428;6.756;2022-07-31T08:31:16;5.03;;;3.10;;
15398;SDS011;7797;51.428;6.756;2022-07-31T08:33:46;4.20;;;3.70;;
15398;SDS011;7797;51.428;6.756;2022-07-31T08:36:13;3.70;;;3.40;;
15398;SDS011;7797;51.428;6.756;2022-07-31T08:38:40;4.30;;;3.70;;
15398;SDS011;7797;51.428;6.756;2022-07-31T08:41:06;3.53;;;3.07;;
15398;SDS011;7797;51.428;6.756;2022-07-31T08:43:33;3.10;;;2.90;;
15398;SDS011;7797;51.428;6.756;2022-07-31T08:46:20;4.80;;;3.17;;
15398;SDS011;7797;51.428;6.756;2022-07-31T08:48:48;3.07;;;2.77;;
15398;SDS011;7797;51.428;6.756;2022-07-31T08:51:18;3.67;;;2.70;;
15398;SDS011;7797;51.428;6.756;2022-07-31T08:53:45;3.40;;;3.10;;
15398;SDS011;7797;51.428;6.756;2022-07-31T08:56:17;2.90;;;2.70;;
15398;SDS011;7797;51.428;6.756;2022-07-31T08:58:45;3.10;;;2.80;;
15398;SDS011;7797;51.428;6.756;2022-07-31T09:01:14;2.63;;;2.43;;
15398;SDS011;7797;51.428;6.756;2022-07-31T09:03:41;3.70;;;2.90;;
15398;SDS011;7797;51.428;6.756;2022-07-31T09:06:08;4.13;;;3.10;;
15398;SDS011;7797;51.428;6.756;2022-07-31T09:08:36;3.20;;;2.90;;
15398;SDS011;7797;51.428;6.756;2022-07-31T09:11:13;3.63;;;2.77;;
15398;SDS011;7797;51.428;6.756;2022-07-31T09:13:51;2.93;;;2.63;;
15398;SDS011;7797;51.428;6.756;2022-07-31T09:16:29;3.27;;;2.60;;
15398;SDS011;7797;51.428;6.756;2022-07-31T09:19:00;3.23;;;2.70;;
15398;SDS011;7797;51.428;6.756;2022-07-31T09:21:48;4.70;;;2.50;;
15398;SDS011;7797;51.428;6.756;2022-07-31T09:24:25;2.70;;;2.50;;
15398;SDS011;7797;51.428;6.756;2022-07-31T09:27:07;6.10;;;3.10;;
15398;SDS011;7797;51.428;6.756;2022-07-31T09:32:08;2.70;;;2.50;;
15398;SDS011;7797;51.428;6.756;2022-07-31T09:34:36;2.97;;;2.77;;
15398;SDS011;7797;51.428;6.756;2022-07-31T09:37:08;2.60;;;2.40;;
15398;SDS011;7797;51.428;6.756;2022-07-31T09:39:48;2.80;;;2.60;;
15398;SDS011;7797;51.428;6.756;2022-07-31T09:42:22;4.27;;;3.03;;
15398;SDS011;7797;51.428;6.756;2022-07-31T09:44:50;3.03;;;2.80;;
15398;SDS011;7797;51.428;6.756;2022-07-31T09:47:25;2.97;;;2.77;;
15398;SDS011;7797;51.428;6.756;2022-07-31T09:49:55;3.17;;;2.97;;
15398;SDS011;7797;51.428;6.756;2022-07-31T09:52:24;3.13;;;2.87;;
15398;SDS011;7797;51.428;6.756;2022-07-31T09:55:06;3.63;;;2.90;;
15398;SDS011;7797;51.428;6.756;2022-07-31T09:57:51;2.83;;;2.60;;
15398;SDS011;7797;51.428;6.756;2022-07-31T10:00:19;2.83;;;2.63;;
15398;SDS011;7797;51.428;6.756;2022-07-31T10:02:54;3.27;;;2.87;;
15398;SDS011;7797;51.428;6.756;2022-07-31T10:05:22;3.77;;;2.90;;
15398;SDS011;7797;51.428;6.756;2022-07-31T10:07:50;3.03;;;2.77;;
15398;SDS011;7797;51.428;6.756;2022-07-31T10:10:20;2.97;;;2.60;;
15398;SDS011;7797;51.428;6.756;2022-07-31T10:12:48;3.00;;;2.70;;
15398;SDS011;7797;51.428;6.756;2022-07-31T10:15:16;2.80;;;2.70;;
15398;SDS011;7797;51.428;6.756;2022-07-31T10:17:46;3.10;;;2.83;;
15398;SDS011;7797;51.428;6.756;2022-07-31T10:20:15;3.67;;;2.50;;
15398;SDS011;7797;51.428;6.756;2022-07-31T10:22:47;3.10;;;2.30;;
15398;SDS011;7797;51.428;6.756;2022-07-31T10:25:24;2.80;;;2.37;;
15398;SDS011;7797;51.428;6.756;2022-07-31T10:27:53;2.40;;;2.30;;
15398;SDS011;7797;51.428;6.756;2022-07-31T10:30:23;2.50;;;2.40;;
15398;SDS011;7797;51.428;6.756;2022-07-31T10:32:53;2.53;;;2.33;;
15398;SDS011;7797;51.428;6.756;2022-07-31T10:35:20;2.60;;;2.40;;
15398;SDS011;7797;51.428;6.756;2022-07-31T10:40:41;2.97;;;2.67;;
15398;SDS011;7797;51.428;6.756;2022-07-31T10:45:48;2.73;;;2.53;;
15398;SDS011;7797;51.428;6.756;2022-07-31T10:48:16;4.43;;;2.70;;
15398;SDS011;7797;51.428;6.756;2022-07-31T10:50:43;2.80;;;2.60;;
15398;SDS011;7797;51.428;6.756;2022-07-31T10:53:11;2.57;;;2.37;;
15398;SDS011;7797;51.428;6.756;2022-07-31T10:55:39;3.25;;;2.55;;
15398;SDS011;7797;51.428;6.756;2022-07-31T10:58:14;3.27;;;2.40;;
15398;SDS011;7797;51.428;6.756;2022-07-31T11:00:42;2.90;;;2.70;;
15398;SDS011;7797;51.428;6.756;2022-07-31T11:03:13;2.77;;;2.57;;
15398;SDS011;7797;51.428;6.756;2022-07-31T11:05:57;3.10;;;2.90;;
15398;SDS011;7797;51.428;6.756;2022-07-31T11:08:38;3.33;;;2.60;;
15398;SDS011;7797;51.428;6.756;2022-07-31T11:11:06;4.33;;;2.80;;
15398;SDS011;7797;51.428;6.756;2022-07-31T11:13:43;2.53;;;2.43;;
15398;SDS011;7797;51.428;6.756;2022-07-31T11:16:17;2.63;;;2.43;;
15398;SDS011;7797;51.428;6.756;2022-07-31T11:18:55;3.10;;;2.90;;
15398;SDS011;7797;51.428;6.756;2022-07-31T11:24:11;3.00;;;2.70;;
15398;SDS011;7797;51.428;6.756;2022-07-31T11:26:46;3.10;;;2.80;;
15398;SDS011;7797;51.428;6.756;2022-07-31T11:29:24;2.63;;;2.43;;
15398;SDS011;7797;51.428;6.756;2022-07-31T11:32:20;3.07;;;2.87;;
15398;SDS011;7797;51.428;6.756;2022-07-31T11:34:55;5.27;;;2.80;;
15398;SDS011;7797;51.428;6.756;2022-07-31T11:37:23;2.60;;;2.50;;
15398;SDS011;7797;51.428;6.756;2022-07-31T11:39:55;2.90;;;2.70;;
15398;SDS011;7797;51.428;6.756;2022-07-31T11:42:26;3.23;;;2.93;;
15398;SDS011;7797;51.428;6.756;2022-07-31T11:45:04;2.80;;;2.60;;
15398;SDS011;7797;51.428;6.756;2022-07-31T11:47:51;2.80;;;2.60;;
15398;SDS011;7797;51.428;6.756;2022-07-31T11:50:41;4.57;;;2.88;;
15398;SDS011;7797;51.428;6.756;2022-07-31T11:53:09;2.58;;;2.47;;
15398;SDS011;7797;51.428;6.756;2022-07-31T11:56:09;2.92;;;2.70;;
15398;SDS011;7797;51.428;6.756;2022-07-31T11:58:29;3.00;;;2.78;;
15398;SDS011;7797;51.428;6.756;2022-07-31T12:04:26;2.85;;;2.65;;
15398;SDS011;7797;51.428;6.756;2022-07-31T12:06:54;3.00;;;2.80;;
15398;SDS011;7797;51.428;6.756;2022-07-31T12:09:22;2.80;;;2.60;;
15398;SDS011;7797;51.428;6.756;2022-07-31T12:12:08;3.00;;;2.78;;
15398;SDS011;7797;51.428;6.756;2022-07-31T12:14:37;2.60;;;2.50;;
15398;SDS011;7797;51.428;6.756;2022-07-31T12:17:05;2.60;;;2.40;;
15398;SDS011;7797;51.428;6.756;2022-07-31T12:19:34;2.85;;;2.65;;
15398;SDS011;7797;51.428;6.756;2022-07-31T12:22:13;2.63;;;2.50;;
15398;SDS011;7797;51.428;6.756;2022-07-31T12:24:42;2.80;;;2.60;;
15398;SDS011;7797;51.428;6.756;2022-07-31T12:27:13;2.72;;;2.53;;
15398;SDS011;7797;51.428;6.756;2022-07-31T12:29:40;2.50;;;2.30;;
15398;SDS011;7797;51.428;6.756;2022-07-31T12:32:08;2.90;;;2.70;;
15398;SDS011;7797;51.428;6.756;2022-07-31T12:34:41;3.08;;;2.88;;
15398;SDS011;7797;51.428;6.756;2022-07-31T12:37:12;3.75;;;2.38;;
15398;SDS011;7797;51.428;6.756;2022-07-31T12:42:27;2.85;;;2.75;;
15398;SDS011;7797;51.428;6.756;2022-07-31T12:44:58;3.15;;;2.95;;
15398;SDS011;7797;51.428;6.756;2022-07-31T12:47:45;2.83;;;2.70;;
15398;SDS011;7797;51.428;6.756;2022-07-31T12:50:17;3.20;;;3.00;;
15398;SDS011;7797;51.428;6.756;2022-07-31T12:52:44;2.90;;;2.80;;
15398;SDS011;7797;51.428;6.756;2022-07-31T12:55:11;3.00;;;2.80;;
15398;SDS011;7797;51.428;6.756;2022-07-31T12:57:42;3.25;;;3.00;;
15398;SDS011;7797;51.428;6.756;2022-07-31T13:00:17;3.08;;;2.70;;
15398;SDS011;7797;51.428;6.756;2022-07-31T13:02:51;3.60;;;3.05;;
15398;SDS011;7797;51.428;6.756;2022-07-31T13:05:19;3.10;;;2.90;;
15398;SDS011;7797;51.428;6.756;2022-07-31T13:07:46;3.47;;;3.17;;
15398;SDS011;7797;51.428;6.756;2022-07-31T13:10:13;3.20;;;2.90;;
15398;SDS011;7797;51.428;6.756;2022-07-31T13:12:49;3.30;;;3.00;;
15398;SDS011;7797;51.428;6.756;2022-07-31T13:15:17;2.92;;;2.70;;
15398;SDS011;7797;51.428;6.756;2022-07-31T13:17:47;2.72;;;2.53;;
15398;SDS011;7797;51.428;6.756;2022-07-31T13:20:16;3.25;;;2.95;;
15398;SDS011;7797;51.428;6.756;2022-07-31T13:22:42;3.13;;;2.90;;
15398;SDS011;7797;51.428;6.756;2022-07-31T13:25:09;3.20;;;2.90;;
15398;SDS011;7797;51.428;6.756;2022-07-31T13:27:36;3.08;;;2.88;;
15398;SDS011;7797;51.428;6.756;2022-07-31T13:30:03;3.25;;;2.95;;
15398;SDS011;7797;51.428;6.756;2022-07-31T13:32:30;3.38;;;2.70;;
15398;SDS011;7797;51.428;6.756;2022-07-31T13:34:57;2.90;;;2.80;;
15398;SDS011;7797;51.428;6.756;2022-07-31T13:37:44;3.40;;;3.10;;
15398;SDS011;7797;51.428;6.756;2022-07-31T13:40:14;3.58;;;3.05;;
15398;SDS011;7797;51.428;6.756;2022-07-31T13:42:41;3.05;;;2.67;;
15398;SDS011;7797;51.428;6.756;2022-07-31T13:45:08;2.85;;;2.63;;
15398;SDS011;7797;51.428;6.756;2022-07-31T13:47:35;2.83;;;2.63;;
15398;SDS011;7797;51.428;6.756;2022-07-31T13:50:17;3.13;;;2.80;;
15398;SDS011;7797;51.428;6.756;2022-07-31T13:52:43;3.10;;;2.80;;
15398;SDS011;7797;51.428;6.756;2022-07-31T13:55:10;2.72;;;2.53;;
15398;SDS011;7797;51.428;6.756;2022-07-31T13:57:37;3.13;;;2.85;;
15398;SDS011;7797;51.428;6.756;2022-07-31T14:00:04;3.15;;;2.85;;
15398;SDS011;7797;51.428;6.756;2022-07-31T14:02:32;3.13;;;2.90;;
15398;SDS011;7797;51.428;6.756;2022-07-31T14:04:58;3.05;;;2.85;;
15398;SDS011;7797;51.428;6.756;2022-07-31T14:07:28;3.30;;;2.90;;
15398;SDS011;7797;51.428;6.756;2022-07-31T14:10:16;3.35;;;2.90;;
15398;SDS011;7797;51.428;6.756;2022-07-31T14:12:46;2.90;;;2.70;;
15398;SDS011;7797;51.428;6.756;2022-07-31T14:15:13;3.08;;;2.65;;
15398;SDS011;7797;51.428;6.756;2022-07-31T14:17:43;3.08;;;2.67;;
15398;SDS011;7797;51.428;6.756;2022-07-31T14:20:10;3.00;;;2.80;;
15398;SDS011;7797;51.428;6.756;2022-07-31T14:22:37;3.53;;;2.60;;
15398;SDS011;7797;51.428;6.756;2022-07-31T14:25:04;2.92;;;2.60;;
15398;SDS011;7797;51.428;6.756;2022-07-31T14:27:31;2.90;;;2.75;;
15398;SDS011;7797;51.428;6.756;2022-07-31T14:29:59;2.95;;;2.70;;
15398;SDS011;7797;51.428;6.756;2022-07-31T14:32:27;3.00;;;2.80;;
15398;SDS011;7797;51.428;6.756;2022-07-31T14:34:55;2.70;;;2.50;;
15398;SDS011;7797;51.428;6.756;2022-07-31T14:37:22;2.78;;;2.67;;
15398;SDS011;7797;51.428;6.756;2022-07-31T14:39:49;2.67;;;2.55;;
15398;SDS011;7797;51.428;6.756;2022-07-31T14:42:17;2.92;;;2.72;;
15398;SDS011;7797;51.428;6.756;2022-07-31T14:44:50;4.03;;;2.63;;
15398;SDS011;7797;51.428;6.756;2022-07-31T14:47:17;2.75;;;2.55;;
15398;SDS011;7797;51.428;6.756;2022-07-31T14:49:44;2.53;;;2.33;;
15398;SDS011;7797;51.428;6.756;2022-07-31T14:52:31;2.33;;;2.20;;
15398;SDS011;7797;51.428;6.756;2022-07-31T14:54:58;4.50;;;2.67;;
15398;SDS011;7797;51.428;6.756;2022-07-31T14:57:27;3.55;;;2.47;;
15398;SDS011;7797;51.428;6.756;2022-07-31T14:59:56;2.90;;;2.50;;
15398;SDS011;7797;51.428;6.756;2022-07-31T15:02:24;2.58;;;2.38;;
15398;SDS011;7797;51.428;6.756;2022-07-31T15:04:56;2.55;;;2.45;;
15398;SDS011;7797;51.428;6.756;2022-07-31T15:07:43;2.65;;;2.45;;
15398;SDS011;7797;51.428;6.756;2022-07-31T15:10:14;3.03;;;2.83;;
15398;SDS011;7797;51.428;6.756;2022-07-31T15:12:41;4.65;;;2.90;;
15398;SDS011;7797;51.428;6.756;2022-07-31T15:15:08;4.05;;;3.15;;
15398;SDS011;7797;51.428;6.756;2022-07-31T15:17:35;4.07;;;3.60;;
15398;SDS011;7797;51.428;6.756;2022-07-31T15:20:07;4.47;;;4.07;;
15398;SDS011;7797;51.428;6.756;2022-07-31T15:22:34;3.90;;;3.60;;
15398;SDS011;7797;51.428;6.756;2022-07-31T15:25:01;3.90;;;3.33;;
15398;SDS011;7797;51.428;6.756;2022-07-31T15:27:28;4.18;;;3.75;;
15398;SDS011;7797;51.428;6.756;2022-07-31T15:29:55;4.07;;;3.75;;
15398;SDS011;7797;51.428;6.756;2022-07-31T15:32:33;4.00;;;3.70;;
15398;SDS011;7797;51.428;6.756;2022-07-31T15:35:00;4.15;;;3.75;;